createdAt,value
2022-10-01T00:09:12.822Z,11.78
2022-10-01T00:29:12.802Z,11.76
2022-10-01T00:49:12.774Z,11.70
2022-10-01T01:09:12.758Z,11.76
2022-10-01T01:29:12.725Z,11.71
2022-10-01T01:49:12.700Z,11.44
2022-10-01T02:09:12.691Z,11.11
2022-10-01T02:29:12.676Z,10.87
2022-10-01T02:49:12.641Z,10.91
2022-10-01T03:09:12.613Z,10.53
2022-10-01T03:29:12.594Z,10.38
2022-10-01T03:49:12.584Z,10.27
2022-10-01T04:09:12.557Z,10.14
2022-10-01T04:29:12.550Z,10.14
2022-10-01T04:49:12.532Z,10.02
2022-10-01T05:09:12.505Z,10.25
2022-10-01T05:29:12.476Z,10.44
2022-10-01T05:49:12.459Z,10.59
2022-10-01T06:09:12.441Z,10.70
2022-10-01T06:29:12.414Z,10.90
2022-10-01T06:49:12.384Z,11.08
2022-10-01T07:09:12.362Z,11.28
2022-10-01T07:29:12.371Z,11.54
2022-10-01T07:49:12.336Z,11.85
2022-10-01T08:09:12.312Z,12.07
2022-10-01T08:29:12.288Z,12.23
2022-10-01T08:49:12.265Z,12.37
2022-10-01T09:09:12.237Z,12.48
2022-10-01T09:29:12.223Z,12.56
2022-10-01T09:49:12.196Z,12.63
2022-10-01T10:09:12.173Z,12.53
2022-10-01T10:29:12.242Z,12.43
2022-10-01T10:49:12.150Z,12.21
2022-10-01T11:09:12.112Z,12.17
2022-10-01T11:29:12.087Z,12.36
2022-10-01T11:49:12.068Z,12.29
2022-10-01T12:09:12.045Z,12.37
2022-10-01T12:29:12.012Z,12.28
2022-10-01T12:49:11.979Z,12.24
2022-10-01T13:09:11.976Z,12.18
2022-10-01T13:29:11.934Z,12.13
2022-10-01T13:49:11.923Z,12.05
2022-10-01T14:09:11.899Z,11.98
2022-10-01T14:29:11.887Z,12.09
2022-10-01T14:49:11.859Z,12.11
2022-10-01T15:09:11.836Z,12.15
2022-10-01T15:29:11.801Z,12.15
2022-10-01T15:49:11.773Z,12.14
2022-10-01T16:09:11.760Z,12.12
2022-10-01T16:29:11.730Z,12.13
2022-10-01T16:49:11.722Z,12.13
2022-10-01T17:09:11.694Z,12.19
2022-10-01T17:29:11.661Z,12.22
2022-10-01T17:49:11.657Z,12.24
2022-10-01T18:09:11.613Z,12.28
2022-10-01T18:29:11.751Z,12.33
2022-10-01T18:49:11.570Z,12.38
2022-10-01T19:09:11.562Z,12.42
2022-10-01T19:29:11.541Z,12.43
2022-10-01T19:49:11.510Z,12.47
2022-10-01T20:09:11.486Z,12.42
2022-10-01T20:29:11.470Z,12.44
2022-10-01T20:49:11.446Z,12.43
2022-10-01T21:09:11.421Z,12.40
2022-10-01T21:29:11.399Z,12.40
2022-10-01T21:49:11.381Z,12.44
2022-10-01T22:09:11.356Z,12.40
2022-10-01T22:29:11.321Z,12.47
2022-10-01T22:49:11.305Z,12.45
2022-10-01T23:09:11.279Z,12.52
2022-10-01T23:29:11.266Z,12.55
2022-10-01T23:49:11.260Z,12.52
